Time;durP1;ratioP1;P1;durP2;ratioP2;P2;SDS_P1;SDS_P2;PMS_P1;PMS_P2;Temp;Humidity;BMP_temperature;BMP_pressure;BME280_temperature;BME280_humidity;BME280_pressure;Samples;Min_cycle;Max_cycle;Signal;HPM_P1;HPM_P2
2022/04/15 00:01:57;;;;;;;;;;;13.00;99.90;;;;;;5093286;28;19949;-74
2022/04/15 00:04:24;;;;;;;;;;;12.90;99.90;;;;;;5092311;28;19956;-74
2022/04/15 00:06:52;;;;;;;;;;;12.90;99.90;;;;;;5093332;28;20324;-75
2022/04/15 00:09:18;;;;;;;;;;;12.80;99.90;;;;;;5093275;28;19961;-75
2022/04/15 00:11:45;;;;;;;;;;;12.80;99.90;;;;;;5097878;28;19942;-74
2022/04/15 00:14:12;;;;;;;;;;;12.70;99.90;;;;;;5081744;28;19956;-74
2022/04/15 00:16:43;;;;;;;;;;;12.70;99.90;;;;;;5093447;28;20518;-76
2022/04/15 00:19:10;;;;;;;;;;;12.70;99.90;;;;;;5090059;28;19942;-75
2022/04/15 00:21:37;;;;;;;;;;;12.60;99.90;;;;;;5087597;28;20372;-75
2022/04/15 00:24:05;;;;;;;;;;;12.60;99.90;;;;;;5092826;28;19961;-76
2022/04/15 00:26:32;;;;;;;;;;;12.50;99.90;;;;;;5089871;28;20384;-76
2022/04/15 00:28:58;;;;;;;;;;;12.50;99.90;;;;;;5092876;28;19959;-74
2022/04/15 00:31:25;;;;;;;;;;;12.40;99.90;;;;;;5087372;28;19946;-75
2022/04/15 00:33:51;;;;;;;;;;;12.40;99.90;;;;;;5086455;28;20015;-74
2022/04/15 00:36:18;;;;;;;;;;;12.30;99.90;;;;;;5092497;28;20018;-73
2022/04/15 00:38:44;;;;;;;;;;;12.30;99.90;;;;;;5092239;28;19939;-75
2022/04/15 00:41:15;;;;;;;;;;;12.30;99.90;;;;;;5082507;28;20002;-73
2022/04/15 00:43:41;;;;;;;;;;;12.20;99.90;;;;;;5073842;28;20036;-73
2022/04/15 00:46:08;;;;;;;;;;;12.20;99.90;;;;;;5092320;28;20473;-73
2022/04/15 00:48:35;;;;;;;;;;;12.20;99.90;;;;;;5092067;28;19939;-73
2022/04/15 00:51:02;;;;;;;;;;;12.20;99.90;;;;;;5091461;28;20039;-73
2022/04/15 00:53:29;;;;;;;;;;;12.20;99.90;;;;;;5090808;28;20514;-73
2022/04/15 00:55:57;;;;;;;;;;;12.10;99.90;;;;;;5091823;28;19946;-72
2022/04/15 00:58:26;;;;;;;;;;;12.10;99.90;;;;;;5090566;28;19946;-73
2022/04/15 01:00:53;;;;;;;;;;;12.00;99.90;;;;;;5078828;28;19943;-73
2022/04/15 01:03:21;;;;;;;;;;;12.10;99.90;;;;;;5079981;28;19988;-73
2022/04/15 01:05:49;;;;;;;;;;;12.00;99.90;;;;;;5091998;28;19951;-73
2022/04/15 01:08:17;;;;;;;;;;;12.00;99.90;;;;;;5088527;28;20362;-73
2022/04/15 01:10:44;;;;;;;;;;;12.00;99.90;;;;;;5090977;28;19950;-74
2022/04/15 01:13:13;;;;;;;;;;;12.00;99.90;;;;;;5095991;28;19990;-74
2022/04/15 01:15:41;;;;;;;;;;;11.90;99.90;;;;;;5091762;28;19942;-73
2022/04/15 01:18:08;;;;;;;;;;;11.90;99.90;;;;;;5091270;28;19943;-73
2022/04/15 01:20:35;;;;;;;;;;;11.90;99.90;;;;;;5080828;28;20414;-73
2022/04/15 01:23:05;;;;;;;;;;;11.80;99.90;;;;;;5089422;28;20006;-73
2022/04/15 01:25:32;;;;;;;;;;;11.80;99.90;;;;;;5081563;28;19945;-72
2022/04/15 01:27:59;;;;;;;;;;;11.70;99.90;;;;;;5085696;28;19942;-73
2022/04/15 01:30:25;;;;;;;;;;;11.70;99.90;;;;;;5087732;28;19953;-73
2022/04/15 01:32:52;;;;;;;;;;;11.70;99.90;;;;;;5087350;28;20365;-72
2022/04/15 01:35:19;;;;;;;;;;;11.60;99.90;;;;;;5082665;28;19938;-73
2022/04/15 01:37:46;;;;;;;;;;;11.60;99.90;;;;;;5092422;28;19945;-72
2022/04/15 01:40:15;;;;;;;;;;;11.60;99.90;;;;;;5091413;28;19938;-74
2022/04/15 01:42:42;;;;;;;;;;;11.60;99.90;;;;;;5091922;28;19960;-73
2022/04/15 01:45:09;;;;;;;;;;;11.50;99.90;;;;;;5088409;28;19989;-72
2022/04/15 01:47:37;;;;;;;;;;;11.50;99.90;;;;;;5092070;28;20422;-73
2022/04/15 01:50:03;;;;;;;;;;;11.50;99.90;;;;;;5089745;28;19998;-73
2022/04/15 01:52:30;;;;;;;;;;;11.50;99.90;;;;;;5083263;28;19948;-72
2022/04/15 01:54:56;;;;;;;;;;;11.40;99.90;;;;;;5088439;28;19938;-75
2022/04/15 01:57:24;;;;;;;;;;;11.40;99.90;;;;;;5091898;28;19935;-73
2022/04/15 01:59:51;;;;;;;;;;;11.40;99.90;;;;;;5093273;28;19936;-73
2022/04/15 02:02:17;;;;;;;;;;;11.40;99.90;;;;;;5094095;28;19945;-73
2022/04/15 02:04:44;;;;;;;;;;;11.40;99.90;;;;;;5091885;28;20398;-74
2022/04/15 02:07:10;;;;;;;;;;;11.30;99.90;;;;;;5079481;28;19998;-72
2022/04/15 02:09:37;;;;;;;;;;;11.30;99.90;;;;;;5083279;28;19958;-74
2022/04/15 02:12:04;;;;;;;;;;;11.30;99.90;;;;;;5093803;28;19932;-73
2022/04/15 02:14:32;;;;;;;;;;;11.30;99.90;;;;;;5088163;28;19997;-73
2022/04/15 02:16:59;;;;;;;;;;;11.30;99.90;;;;;;5088842;28;19944;-73
2022/04/15 02:19:25;;;;;;;;;;;11.30;99.90;;;;;;5087279;28;20011;-72
2022/04/15 02:21:52;;;;;;;;;;;11.40;99.90;;;;;;5082982;28;20474;-72
2022/04/15 02:24:18;;;;;;;;;;;11.40;99.90;;;;;;5082710;28;19957;-72
2022/04/15 02:26:45;;;;;;;;;;;11.30;99.90;;;;;;5091015;28;19943;-72
2022/04/15 02:29:11;;;;;;;;;;;11.20;99.90;;;;;;5089835;28;21651;-74
2022/04/15 02:31:39;;;;;;;;;;;11.20;99.90;;;;;;5082605;28;19995;-72
2022/04/15 02:34:06;;;;;;;;;;;11.10;99.90;;;;;;5085341;28;19954;-72
2022/04/15 02:36:32;;;;;;;;;;;11.10;99.90;;;;;;5090430;28;19934;-73
2022/04/15 02:38:59;;;;;;;;;;;11.00;99.90;;;;;;5090333;28;20374;-73
2022/04/15 02:41:25;;;;;;;;;;;11.00;99.90;;;;;;5090117;28;19943;-73
2022/04/15 02:43:52;;;;;;;;;;;11.00;99.90;;;;;;5089111;28;19949;-72
2022/04/15 02:46:19;;;;;;;;;;;11.00;99.90;;;;;;5080080;28;20308;-74
2022/04/15 02:48:47;;;;;;;;;;;10.90;99.90;;;;;;5091134;28;19936;-73
2022/04/15 02:51:16;;;;;;;;;;;11.00;99.90;;;;;;5090388;28;20012;-72
2022/04/15 02:53:43;;;;;;;;;;;10.90;99.90;;;;;;5088091;28;19952;-73
2022/04/15 02:56:09;;;;;;;;;;;10.90;99.90;;;;;;5080446;28;20004;-72
2022/04/15 02:58:36;;;;;;;;;;;10.90;99.90;;;;;;5091961;28;19966;-73
2022/04/15 03:01:02;;;;;;;;;;;10.90;99.90;;;;;;5084343;28;19939;-73
2022/04/15 03:03:29;;;;;;;;;;;10.80;99.90;;;;;;5094163;28;20016;-73
2022/04/15 03:05:57;;;;;;;;;;;10.80;99.90;;;;;;5094653;28;19941;-72
2022/04/15 03:08:23;;;;;;;;;;;10.80;99.90;;;;;;5095107;28;19932;-72
2022/04/15 03:10:50;;;;;;;;;;;10.80;99.90;;;;;;5084590;28;20096;-72
2022/04/15 03:13:16;;;;;;;;;;;10.70;99.90;;;;;;5098707;28;19952;-72
2022/04/15 03:15:43;;;;;;;;;;;10.60;99.90;;;;;;5097717;28;19950;-73
2022/04/15 03:18:10;;;;;;;;;;;10.60;99.90;;;;;;5094926;28;20029;-73
2022/04/15 03:20:36;;;;;;;;;;;10.60;99.90;;;;;;5094120;28;19944;-73
2022/04/15 03:23:05;;;;;;;;;;;10.50;99.90;;;;;;5093490;28;20005;-73
2022/04/15 03:25:31;;;;;;;;;;;10.40;99.90;;;;;;5095062;28;19935;-74
2022/04/15 03:28:00;;;;;;;;;;;10.40;99.90;;;;;;5094772;28;19987;-73
2022/04/15 03:30:26;;;;;;;;;;;10.40;99.90;;;;;;5090525;28;20046;-73
2022/04/15 03:32:53;;;;;;;;;;;10.30;99.90;;;;;;5089106;28;20369;-73
2022/04/15 03:35:21;;;;;;;;;;;10.30;99.90;;;;;;5095361;28;19943;-73
2022/04/15 03:37:47;;;;;;;;;;;10.20;99.90;;;;;;5094640;28;19931;-73
2022/04/15 03:40:15;;;;;;;;;;;10.20;99.90;;;;;;5079629;28;19982;-73
2022/04/15 03:42:45;;;;;;;;;;;10.20;99.90;;;;;;5092580;28;19955;-74
2022/04/15 03:45:14;;;;;;;;;;;10.20;99.90;;;;;;5093774;28;19947;-73
2022/04/15 03:47:41;;;;;;;;;;;10.10;99.90;;;;;;5094011;28;19984;-73
2022/04/15 03:50:08;;;;;;;;;;;10.10;99.90;;;;;;5093029;28;20421;-73
2022/04/15 03:52:38;;;;;;;;;;;10.10;99.90;;;;;;5093000;28;19955;-73
2022/04/15 03:55:05;;;;;;;;;;;10.00;99.90;;;;;;5092455;28;20016;-74
2022/04/15 03:57:33;;;;;;;;;;;10.00;99.90;;;;;;5085328;28;19934;-72
2022/04/15 03:59:59;;;;;;;;;;;10.00;99.90;;;;;;5099617;28;19943;-74
2022/04/15 04:02:26;;;;;;;;;;;9.90;99.90;;;;;;5093518;28;19946;-72
2022/04/15 04:04:52;;;;;;;;;;;9.90;99.90;;;;;;5093331;28;19942;-72
2022/04/15 04:07:19;;;;;;;;;;;9.90;99.90;;;;;;5091860;28;19932;-74
2022/04/15 04:09:45;;;;;;;;;;;9.90;99.90;;;;;;5079680;28;20631;-74
2022/04/15 04:12:12;;;;;;;;;;;9.80;99.90;;;;;;5084139;28;20034;-73
2022/04/15 04:14:40;;;;;;;;;;;9.80;99.90;;;;;;5091764;28;19936;-73
2022/04/15 04:17:06;;;;;;;;;;;9.80;99.90;;;;;;5092710;28;19936;-74
2022/04/15 04:19:33;;;;;;;;;;;9.80;99.90;;;;;;5091525;28;19940;-73
2022/04/15 04:21:59;;;;;;;;;;;9.80;99.90;;;;;;5089128;28;19941;-73
2022/04/15 04:24:26;;;;;;;;;;;9.80;99.90;;;;;;5093454;28;19959;-73
2022/04/15 04:26:52;;;;;;;;;;;9.70;99.90;;;;;;5093830;28;19940;-73
2022/04/15 04:29:19;;;;;;;;;;;9.60;99.90;;;;;;5096455;28;19941;-73
2022/04/15 04:31:47;;;;;;;;;;;9.60;99.90;;;;;;5099062;28;19950;-74
2022/04/15 04:34:13;;;;;;;;;;;9.60;99.90;;;;;;5093109;28;19963;-74
2022/04/15 04:36:40;;;;;;;;;;;9.60;99.90;;;;;;5092913;28;19934;-73
2022/04/15 04:39:09;;;;;;;;;;;9.60;99.90;;;;;;5091786;28;20321;-74
2022/04/15 04:41:35;;;;;;;;;;;9.60;99.90;;;;;;5092063;28;19945;-72
2022/04/15 04:44:02;;;;;;;;;;;9.60;99.90;;;;;;5086411;28;19956;-73
2022/04/15 04:46:29;;;;;;;;;;;9.60;99.90;;;;;;5092543;28;19950;-74
2022/04/15 04:48:56;;;;;;;;;;;9.60;99.90;;;;;;5082851;28;19934;-72
2022/04/15 04:51:23;;;;;;;;;;;9.60;99.90;;;;;;5081520;28;19960;-73
2022/04/15 04:53:50;;;;;;;;;;;9.60;99.90;;;;;;5091721;28;19999;-74
2022/04/15 04:56:17;;;;;;;;;;;9.60;99.90;;;;;;5092015;28;19932;-73
2022/04/15 04:58:43;;;;;;;;;;;9.70;99.90;;;;;;5091851;28;19943;-73
2022/04/15 05:01:10;;;;;;;;;;;9.70;99.90;;;;;;5092737;28;20566;-73
2022/04/15 05:03:36;;;;;;;;;;;9.70;99.90;;;;;;5091863;28;19952;-74
2022/04/15 05:06:04;;;;;;;;;;;9.70;99.90;;;;;;5091504;28;20013;-72
2022/04/15 05:08:31;;;;;;;;;;;9.70;99.90;;;;;;5091655;28;19951;-73
2022/04/15 05:10:57;;;;;;;;;;;9.70;99.90;;;;;;5094465;28;19952;-72
2022/04/15 05:15:49;;;;;;;;;;;9.70;99.90;;;;;;5103914;22;19961;-75
2022/04/15 05:18:16;;;;;;;;;;;9.70;99.90;;;;;;5087472;28;20516;-75
2022/04/15 05:20:42;;;;;;;;;;;9.80;99.90;;;;;;5084971;28;19949;-76
2022/04/15 05:23:10;;;;;;;;;;;9.80;99.90;;;;;;5093613;28;19951;-75
2022/04/15 05:25:36;;;;;;;;;;;9.80;99.90;;;;;;5089816;28;20419;-76
2022/04/15 05:28:03;;;;;;;;;;;9.80;99.90;;;;;;5095257;28;19930;-75
2022/04/15 05:30:30;;;;;;;;;;;9.80;99.90;;;;;;5078462;28;19949;-75
2022/04/15 05:32:56;;;;;;;;;;;9.90;99.90;;;;;;5086863;28;20524;-75
2022/04/15 05:35:23;;;;;;;;;;;9.90;99.90;;;;;;5087352;28;19952;-75
2022/04/15 05:37:49;;;;;;;;;;;9.90;99.90;;;;;;5075223;28;19944;-76
2022/04/15 05:40:17;;;;;;;;;;;9.90;99.90;;;;;;5079549;28;19995;-75
2022/04/15 05:42:43;;;;;;;;;;;10.00;99.90;;;;;;5087921;28;19939;-74
2022/04/15 05:45:10;;;;;;;;;;;10.10;99.90;;;;;;5087856;28;20362;-75
2022/04/15 05:47:37;;;;;;;;;;;10.10;99.90;;;;;;5083962;28;19945;-75
2022/04/15 05:50:05;;;;;;;;;;;10.10;99.90;;;;;;5081741;28;19999;-74
2022/04/15 05:52:31;;;;;;;;;;;10.20;99.90;;;;;;5083161;28;20853;-75
2022/04/15 05:54:58;;;;;;;;;;;10.30;99.90;;;;;;5086954;28;19961;-74
2022/04/15 05:57:26;;;;;;;;;;;10.30;99.90;;;;;;5086424;28;19949;-74
2022/04/15 05:59:52;;;;;;;;;;;10.40;99.90;;;;;;5077313;28;20317;-76
2022/04/15 06:02:19;;;;;;;;;;;10.50;99.90;;;;;;5078299;28;19988;-76
2022/04/15 06:04:45;;;;;;;;;;;10.60;99.90;;;;;;5086859;28;19967;-76
2022/04/15 06:07:12;;;;;;;;;;;10.60;99.90;;;;;;5080507;28;20495;-76
2022/04/15 06:09:38;;;;;;;;;;;10.70;99.90;;;;;;5086083;28;20027;-77
2022/04/15 06:12:05;;;;;;;;;;;10.70;99.90;;;;;;5080496;28;20436;-76
2022/04/15 06:14:36;;;;;;;;;;;10.80;99.90;;;;;;5081570;28;19960;-76
2022/04/15 06:17:03;;;;;;;;;;;10.80;99.90;;;;;;5085818;28;20319;-76
2022/04/15 06:19:29;;;;;;;;;;;10.90;99.90;;;;;;5083403;28;19942;-76
2022/04/15 06:21:56;;;;;;;;;;;11.00;99.90;;;;;;5083293;28;20451;-76
2022/04/15 06:24:22;;;;;;;;;;;11.00;99.90;;;;;;5086076;28;19960;-77
2022/04/15 06:26:50;;;;;;;;;;;11.10;99.90;;;;;;5086424;28;19994;-76
2022/04/15 06:29:17;;;;;;;;;;;11.20;99.90;;;;;;5085884;28;20282;-77
2022/04/15 06:31:44;;;;;;;;;;;11.30;99.90;;;;;;5084557;28;19953;-76
2022/04/15 06:34:11;;;;;;;;;;;11.30;99.90;;;;;;5083719;28;19979;-76
2022/04/15 06:36:37;;;;;;;;;;;11.40;99.90;;;;;;5084962;28;19951;-76
2022/04/15 06:39:04;;;;;;;;;;;11.50;99.90;;;;;;5080646;28;19948;-76
2022/04/15 06:41:31;;;;;;;;;;;11.60;99.90;;;;;;5081342;28;19939;-76
2022/04/15 06:43:57;;;;;;;;;;;11.70;99.90;;;;;;5082747;28;19958;-75
2022/04/15 06:46:24;;;;;;;;;;;11.90;99.90;;;;;;5086820;28;20268;-75
2022/04/15 06:48:51;;;;;;;;;;;12.00;99.90;;;;;;5083354;28;19935;-75
2022/04/15 06:51:18;;;;;;;;;;;12.00;99.90;;;;;;5085238;28;19963;-74
2022/04/15 06:53:44;;;;;;;;;;;12.10;99.90;;;;;;5070983;28;19990;-75
2022/04/15 06:56:13;;;;;;;;;;;12.30;99.90;;;;;;5082460;28;19937;-76
2022/04/15 06:58:39;;;;;;;;;;;12.30;99.90;;;;;;5082777;28;20061;-76
2022/04/15 07:01:06;;;;;;;;;;;12.40;99.90;;;;;;5086813;28;19950;-76
2022/04/15 07:03:32;;;;;;;;;;;12.50;99.90;;;;;;5085154;28;19943;-76
2022/04/15 07:06:00;;;;;;;;;;;12.60;99.90;;;;;;5088550;28;20015;-75
2022/04/15 07:08:27;;;;;;;;;;;12.60;99.90;;;;;;5089188;28;19996;-76
2022/04/15 07:10:53;;;;;;;;;;;12.70;99.90;;;;;;5081290;28;19943;-75
2022/04/15 07:13:20;;;;;;;;;;;12.80;99.90;;;;;;5076902;28;19969;-77
2022/04/15 07:15:47;;;;;;;;;;;12.90;99.90;;;;;;5085392;28;20016;-76
2022/04/15 07:18:13;;;;;;;;;;;13.00;99.90;;;;;;5082455;28;20516;-75
2022/04/15 07:20:40;;;;;;;;;;;13.10;99.90;;;;;;5078019;28;19998;-75
2022/04/15 07:23:08;;;;;;;;;;;13.20;99.90;;;;;;5083973;28;19942;-76
2022/04/15 07:25:35;;;;;;;;;;;13.20;99.90;;;;;;5084966;28;20329;-75
2022/04/15 07:28:02;;;;;;;;;;;13.20;99.90;;;;;;5072618;28;19959;-75
2022/04/15 07:30:29;;;;;;;;;;;13.30;99.90;;;;;;5085247;28;19956;-75
2022/04/15 07:32:56;;;;;;;;;;;13.30;99.90;;;;;;5081187;28;20046;-75
2022/04/15 07:35:22;;;;;;;;;;;13.30;99.90;;;;;;5080113;28;19956;-75
2022/04/15 07:37:49;;;;;;;;;;;13.40;99.90;;;;;;5086903;28;19976;-75
2022/04/15 07:40:17;;;;;;;;;;;13.50;99.90;;;;;;5085887;28;20037;-75
2022/04/15 07:42:44;;;;;;;;;;;13.70;99.90;;;;;;5082327;28;19942;-75
2022/04/15 07:45:10;;;;;;;;;;;13.80;99.90;;;;;;5094324;28;19958;-73
2022/04/15 07:47:37;;;;;;;;;;;13.90;99.90;;;;;;5102541;28;20005;-73
2022/04/15 07:50:03;;;;;;;;;;;14.10;99.90;;;;;;5088662;28;20006;-73
2022/04/15 07:52:32;;;;;;;;;;;14.20;99.90;;;;;;5090710;28;20058;-73
2022/04/15 07:54:58;;;;;;;;;;;14.40;99.90;;;;;;5086710;28;20545;-76
2022/04/15 07:57:28;;;;;;;;;;;14.50;99.90;;;;;;5090976;28;20293;-75
2022/04/15 07:59:54;;;;;;;;;;;14.60;99.90;;;;;;5095410;28;19935;-76
2022/04/15 08:02:32;;;;;;;;;;;14.60;99.90;;;;;;5106176;28;19948;-79
2022/04/15 08:04:59;;;;;;;;;;;14.80;99.90;;;;;;5096010;28;19967;-76
2022/04/15 08:07:25;;;;;;;;;;;14.80;99.90;;;;;;5101677;28;19939;-79
2022/04/15 08:09:52;;;;;;;;;;;14.80;99.90;;;;;;5106204;28;19940;-75
2022/04/15 08:12:18;;;;;;;;;;;14.70;99.90;;;;;;5104585;28;19964;-74
2022/04/15 08:14:46;;;;;;;;;;;14.80;99.90;;;;;;5099856;28;19966;-76
2022/04/15 08:17:13;;;;;;;;;;;14.70;99.90;;;;;;5094793;28;19958;-76
2022/04/15 08:19:40;;;;;;;;;;;14.70;99.90;;;;;;5090140;28;20013;-76
2022/04/15 08:22:09;;;;;;;;;;;14.80;99.90;;;;;;5086879;28;19951;-75
2022/04/15 08:24:38;;;;;;;;;;;14.80;99.90;;;;;;5085534;28;19962;-75
2022/04/15 08:27:05;;;;;;;;;;;14.70;99.90;;;;;;5082065;28;19944;-77
2022/04/15 08:29:32;;;;;;;;;;;14.50;99.90;;;;;;5088733;28;20534;-75
2022/04/15 08:32:00;;;;;;;;;;;14.40;99.90;;;;;;5088644;28;20360;-76
2022/04/15 08:34:27;;;;;;;;;;;14.30;99.90;;;;;;5079870;28;20313;-76
2022/04/15 08:36:53;;;;;;;;;;;14.30;99.90;;;;;;5084793;28;19955;-74
2022/04/15 08:39:20;;;;;;;;;;;14.20;99.90;;;;;;5078048;28;19952;-74
2022/04/15 08:41:46;;;;;;;;;;;14.00;99.90;;;;;;5089973;28;19955;-73
2022/04/15 08:44:13;;;;;;;;;;;14.00;99.90;;;;;;5081311;28;19961;-74
2022/04/15 08:46:40;;;;;;;;;;;13.90;99.90;;;;;;5075633;28;19942;-74
2022/04/15 08:49:08;;;;;;;;;;;14.00;99.90;;;;;;5087495;28;20007;-74
2022/04/15 08:51:35;;;;;;;;;;;14.00;99.90;;;;;;5088488;28;19955;-70
2022/04/15 08:54:02;;;;;;;;;;;13.90;99.90;;;;;;5086292;28;19980;-73
2022/04/15 08:56:29;;;;;;;;;;;14.00;99.90;;;;;;5084879;28;20485;-73
2022/04/15 08:58:56;;;;;;;;;;;14.00;99.90;;;;;;5087203;28;20039;-74
2022/04/15 09:01:23;;;;;;;;;;;13.90;99.90;;;;;;5083734;28;20027;-73
2022/04/15 09:03:51;;;;;;;;;;;13.90;99.90;;;;;;5086621;28;19969;-73
2022/04/15 09:06:19;;;;;;;;;;;13.80;99.90;;;;;;5087430;28;19953;-74
2022/04/15 09:08:58;;;;;;;;;;;13.80;99.90;;;;;;5081246;28;19940;-73
2022/04/15 09:11:29;;;;;;;;;;;14.00;99.90;;;;;;5086051;28;20029;-73
2022/04/15 09:13:56;;;;;;;;;;;14.00;99.90;;;;;;5089179;28;19959;-73
2022/04/15 09:16:23;;;;;;;;;;;14.00;99.90;;;;;;5092974;28;20416;-73
2022/04/15 09:18:50;;;;;;;;;;;13.90;99.90;;;;;;5102810;28;19941;-73
2022/04/15 09:21:21;;;;;;;;;;;14.00;99.90;;;;;;5099863;28;19997;-73
2022/04/15 09:23:49;;;;;;;;;;;14.10;99.90;;;;;;5099095;28;20024;-73
2022/04/15 09:26:16;;;;;;;;;;;14.30;99.90;;;;;;5086409;28;19946;-73
2022/04/15 09:28:43;;;;;;;;;;;14.30;99.90;;;;;;5083113;28;19941;-74
2022/04/15 09:31:14;;;;;;;;;;;14.40;99.90;;;;;;5082029;28;19937;-73
2022/04/15 09:33:54;;;;;;;;;;;14.50;99.90;;;;;;5086021;28;19977;-74
2022/04/15 09:36:32;;;;;;;;;;;14.50;99.90;;;;;;5087428;28;19975;-73
2022/04/15 09:38:59;;;;;;;;;;;14.60;99.90;;;;;;5083914;28;19946;-70
2022/04/15 09:41:29;;;;;;;;;;;14.70;99.90;;;;;;5083992;28;19944;-68
2022/04/15 09:43:56;;;;;;;;;;;15.00;99.90;;;;;;5082230;28;19962;-73
2022/04/15 09:46:23;;;;;;;;;;;15.20;99.90;;;;;;5087532;28;19985;-73
2022/04/15 09:49:02;;;;;;;;;;;15.40;99.90;;;;;;5075076;28;20383;-72
2022/04/15 09:51:31;;;;;;;;;;;15.50;99.90;;;;;;5087893;28;19948;-72
2022/04/15 09:54:01;;;;;;;;;;;15.60;99.90;;;;;;5087845;28;20035;-73
2022/04/15 09:56:28;;;;;;;;;;;16.20;99.90;;;;;;5088004;28;19992;-73
2022/04/15 09:58:54;;;;;;;;;;;16.40;99.90;;;;;;5090441;28;20037;-74
2022/04/15 10:01:23;;;;;;;;;;;16.60;99.90;;;;;;5088854;28;19943;-73
2022/04/15 10:04:45;;;;;;;;;;;17.10;99.90;;;;;;5142191;27;20309;-71
2022/04/15 10:07:12;;;;;;;;;;;17.90;99.90;;;;;;5117476;27;19981;-71
2022/04/15 10:09:39;;;;;;;;;;;18.30;99.90;;;;;;5111192;28;20013;-68
2022/04/15 10:12:06;;;;;;;;;;;18.40;99.90;;;;;;5111533;28;20007;-71
2022/04/15 10:14:33;;;;;;;;;;;18.40;99.90;;;;;;5115944;28;20041;-70
2022/04/15 10:17:00;;;;;;;;;;;18.50;99.90;;;;;;5117026;28;19997;-69
2022/04/15 10:19:27;;;;;;;;;;;18.70;99.90;;;;;;5112023;28;19944;-71
2022/04/15 10:21:55;;;;;;;;;;;19.10;99.90;;;;;;5113874;28;19972;-70
2022/04/15 10:24:24;;;;;;;;;;;19.20;99.90;;;;;;5112093;28;19975;-72
2022/04/15 10:27:09;;;;;;;;;;;19.30;99.90;;;;;;5116903;28;19939;-70
2022/04/15 10:29:36;;;;;;;;;;;19.50;99.90;;;;;;5120303;28;19947;-70
2022/04/15 10:32:12;;;;;;;;;;;19.80;99.90;;;;;;5118506;28;19949;-71
2022/04/15 10:34:44;;;;;;;;;;;19.90;99.90;;;;;;5130228;27;19966;-71
2022/04/15 10:37:12;;;;;;;;;;;20.10;99.90;;;;;;5132103;27;19939;-71
2022/04/15 10:39:47;;;;;;;;;;;20.30;99.90;;;;;;5115064;28;19940;-72
2022/04/15 10:42:17;;;;;;;;;;;20.40;99.90;;;;;;5106249;28;20104;-69
2022/04/15 10:44:44;;;;;;;;;;;20.50;99.90;;;;;;5104001;28;20056;-70
2022/04/15 10:47:12;;;;;;;;;;;20.60;99.90;;;;;;5104036;28;20051;-69
2022/04/15 10:49:39;;;;;;;;;;;20.90;99.90;;;;;;5102940;28;20406;-70
2022/04/15 10:52:17;;;;;;;;;;;21.00;99.90;;;;;;5104802;28;19951;-69
2022/04/15 10:54:46;;;;;;;;;;;21.20;99.90;;;;;;5102422;28;19985;-70
2022/04/15 10:57:14;;;;;;;;;;;21.40;99.90;;;;;;5103303;28;20418;-70
2022/04/15 11:02:36;;;;;;;;;;;21.70;99.90;;;;;;5095462;28;20097;-69
2022/04/15 11:05:03;;;;;;;;;;;21.70;99.90;;;;;;5108311;27;19969;-69
2022/04/15 11:07:41;;;;;;;;;;;21.60;99.90;;;;;;5101896;28;20111;-69
2022/04/15 11:10:15;;;;;;;;;;;21.40;99.90;;;;;;5102589;28;19990;-70
2022/04/15 11:12:44;;;;;;;;;;;21.50;99.90;;;;;;5101684;28;20069;-69
2022/04/15 11:15:11;;;;;;;;;;;21.60;99.90;;;;;;5092339;28;20142;-70
2022/04/15 11:17:38;;;;;;;;;;;21.60;99.90;;;;;;5088684;28;20371;-69
2022/04/15 11:20:05;;;;;;;;;;;21.70;99.90;;;;;;5101164;28;20030;-71
2022/04/15 11:22:33;;;;;;;;;;;21.90;99.90;;;;;;5090615;28;20046;-71
2022/04/15 11:25:00;;;;;;;;;;;22.20;99.90;;;;;;5089168;28;20156;-70
2022/04/15 11:27:27;;;;;;;;;;;22.40;99.90;;;;;;5091068;28;19943;-70
2022/04/15 11:29:53;;;;;;;;;;;22.60;99.90;;;;;;5094024;28;19971;-69
2022/04/15 11:32:20;;;;;;;;;;;23.30;99.90;;;;;;5090338;28;19996;-69
2022/04/15 11:34:46;;;;;;;;;;;23.70;99.90;;;;;;5093285;28;19964;-70
2022/04/15 11:37:13;;;;;;;;;;;24.30;99.90;;;;;;5083923;28;20028;-71
2022/04/15 11:39:46;;;;;;;;;;;24.90;99.90;;;;;;5085154;28;20035;-70
2022/04/15 11:42:13;;;;;;;;;;;25.90;99.10;;;;;;5082952;28;20368;-72
2022/04/15 11:44:41;;;;;;;;;;;26.40;97.80;;;;;;5097162;28;20012;-71
2022/04/15 11:47:18;;;;;;;;;;;27.00;97.00;;;;;;5094565;28;19945;-71
2022/04/15 11:49:45;;;;;;;;;;;27.40;94.40;;;;;;5092954;28;19951;-70
2022/04/15 11:52:20;;;;;;;;;;;27.90;94.00;;;;;;5098330;28;20035;-70
2022/04/15 11:54:48;;;;;;;;;;;28.70;92.60;;;;;;5093169;28;20018;-71
2022/04/15 11:57:14;;;;;;;;;;;29.50;90.40;;;;;;5094853;28;20020;-72
2022/04/15 11:59:41;;;;;;;;;;;29.90;88.50;;;;;;5092398;28;19951;-71
2022/04/15 12:02:09;;;;;;;;;;;30.30;85.60;;;;;;5095146;28;19963;-70
2022/04/15 12:04:35;;;;;;;;;;;30.40;83.70;;;;;;5094286;28;20022;-70
2022/04/15 12:07:03;;;;;;;;;;;31.20;79.90;;;;;;5089517;28;20437;-70
2022/04/15 12:09:30;;;;;;;;;;;31.40;77.30;;;;;;5091240;28;19950;-71
2022/04/15 12:11:57;;;;;;;;;;;32.00;76.90;;;;;;5091617;28;19957;-76
2022/04/15 12:17:08;;;;;;;;;;;31.70;70.40;;;;;;5103634;28;20450;-70
2022/04/15 12:19:35;;;;;;;;;;;31.00;71.30;;;;;;5109571;28;19941;-70
2022/04/15 12:22:02;;;;;;;1.00;1.00;;;30.90;71.20;;;;;;5109814;28;19967;-71
2022/04/15 12:24:30;;;;;;;;;;;31.40;70.70;;;;;;5109711;28;20216;-70
2022/04/15 12:27:00;;;;;;;;;;;31.70;69.80;;;;;;5089660;28;19967;-71
2022/04/15 12:32:20;;;;;;;;;;;31.50;68.50;;;;;;5084810;28;19949;-71
2022/04/15 12:34:47;;;;;;;2.70;2.60;;;31.90;67.60;;;;;;5087644;28;20442;-71
2022/04/15 12:37:34;;;;;;;2.10;2.00;;;32.20;68.10;;;;;;5090497;28;20207;-71
2022/04/15 12:40:01;;;;;;;1.90;1.80;;;32.60;66.10;;;;;;5082091;28;20461;-72
2022/04/15 12:42:30;;;;;;;1.90;1.80;;;33.00;65.20;;;;;;5088403;28;20428;-71
2022/04/15 12:44:59;;;;;;;2.40;2.20;;;33.40;64.20;;;;;;5090327;28;20503;-72
2022/04/15 12:47:26;;;;;;;2.67;2.47;;;33.50;63.00;;;;;;5086043;28;20437;-70
2022/04/15 12:49:54;;;;;;;2.20;2.10;;;33.60;62.30;;;;;;5088044;28;20449;-70
2022/04/15 12:52:22;;;;;;;2.40;2.20;;;33.90;62.20;;;;;;5091613;28;20421;-67
2022/04/15 12:55:00;;;;;;;3.50;2.00;;;34.20;60.90;;;;;;5087918;28;20425;-70
2022/04/15 12:57:34;;;;;;;2.33;2.23;;;34.60;59.90;;;;;;5082958;28;20875;-71
2022/04/15 13:00:01;;;;;;;2.17;2.07;;;34.50;59.00;;;;;;5092303;28;21040;-70
2022/04/15 13:02:29;;;;;;;2.97;2.77;;;34.60;58.60;;;;;;5085503;28;20944;-71
2022/04/15 13:04:56;;;;;;;2.33;2.20;;;33.90;58.60;;;;;;5077716;28;20528;-72
2022/04/15 13:07:23;;;;;;;2.37;2.10;;;33.60;59.10;;;;;;5084824;28;21057;-71
2022/04/15 13:09:50;;;;;;;2.73;2.63;;;33.60;58.40;;;;;;5080897;28;20446;-70
2022/04/15 13:12:19;;;;;;;2.80;2.70;;;33.60;58.10;;;;;;5087295;28;20503;-71
2022/04/15 13:14:48;;;;;;;2.57;2.47;;;34.20;57.90;;;;;;5086495;28;21159;-71
2022/04/15 13:17:15;;;;;;;3.80;3.50;;;34.60;57.20;;;;;;5087279;28;20498;-71
2022/04/15 13:19:43;;;;;;;3.07;2.80;;;34.10;56.70;;;;;;5088350;28;20427;-71
2022/04/15 13:22:10;;;;;;;2.47;2.27;;;34.10;57.00;;;;;;5089119;28;20424;-70
2022/04/15 13:24:37;;;;;;;3.30;3.10;;;33.90;56.80;;;;;;5088568;28;20482;-70
2022/04/15 13:27:05;;;;;;;3.07;2.87;;;33.60;56.00;;;;;;5089207;28;20432;-71
2022/04/15 13:29:32;;;;;;;3.03;2.83;;;34.10;56.80;;;;;;5087975;28;20482;-71
2022/04/15 13:32:00;;;;;;;3.70;3.50;;;33.90;56.80;;;;;;5088469;28;20423;-71
2022/04/15 13:34:32;;;;;;;2.97;2.77;;;34.10;56.40;;;;;;5088552;28;20468;-71
2022/04/15 13:36:59;;;;;;;3.47;3.17;;;34.90;54.70;;;;;;5088880;28;21181;-71
2022/04/15 13:39:26;;;;;;;3.67;3.47;;;34.40;55.40;;;;;;5088131;28;20450;-70
2022/04/15 13:41:53;;;;;;;2.77;2.67;;;34.40;54.60;;;;;;5100098;28;21027;-71
2022/04/15 13:44:19;;;;;;;2.63;2.53;;;34.60;55.60;;;;;;5090419;28;20486;-70
2022/04/15 13:46:46;;;;;;;2.70;2.50;;;34.30;54.50;;;;;;5095574;28;20475;-71
2022/04/15 13:49:14;;;;;;;3.27;3.07;;;33.30;55.00;;;;;;5088947;28;20519;-71
2022/04/15 13:51:41;;;;;;;3.40;2.93;;;33.20;55.40;;;;;;5088493;28;20952;-71
2022/04/15 13:56:53;;;;;;;2.80;2.60;;;33.00;55.60;;;;;;5086417;28;20476;-71
2022/04/15 13:59:20;;;;;;;2.20;2.10;;;33.30;55.80;;;;;;5086168;28;21151;-71
2022/04/15 14:01:46;;;;;;;2.37;2.27;;;33.60;55.70;;;;;;5086658;28;21228;-71
2022/04/15 14:04:16;;;;;;;1.90;1.80;;;33.80;55.00;;;;;;5073368;28;20531;-71
2022/04/15 14:06:44;;;;;;;2.23;2.13;;;34.20;54.60;;;;;;5086683;28;20527;-71
2022/04/15 14:09:13;;;;;;;2.70;2.50;;;34.20;53.90;;;;;;5087092;28;20417;-71
2022/04/15 14:11:44;;;;;;;2.40;2.20;;;33.50;54.20;;;;;;5082155;28;20433;-69
2022/04/15 14:14:13;;;;;;;2.53;2.37;;;33.00;55.00;;;;;;5084268;28;20425;-70
2022/04/15 14:16:40;;;;;;;2.53;2.27;;;32.50;55.00;;;;;;5082782;28;20490;-70
2022/04/15 14:19:09;;;;;;;2.40;2.30;;;32.50;56.50;;;;;;5085291;28;20476;-69
2022/04/15 14:21:38;;;;;;;1.87;1.77;;;33.10;55.30;;;;;;5090241;28;20492;-69
2022/04/15 14:24:05;;;;;;;2.60;2.30;;;33.80;55.70;;;;;;5085391;28;22222;-72